Time;durP1;ratioP1;P1;durP2;ratioP2;P2;SDS_P1;SDS_P2;PMS_P1;PMS_P2;Temp;Humidity;BMP_temperature;BMP_pressure;BME280_temperature;BME280_humidity;BME280_pressure;Samples;Min_cycle;Max_cycle;Signal;HPM_P1;HPM_P2
2022/04/20 00:03:07;;;;;;;20.80;13.10;;;;;;;4.40;70.48;99662.46;215313;1278;141281;-69
2022/04/20 00:08:10;;;;;;;21.70;15.20;;;;;;;4.40;70.30;99662.38;215626;1279;140266;-70
2022/04/20 00:13:13;;;;;;;21.60;14.70;;;;;;;4.42;70.23;99659.59;214456;1279;140747;-65
2022/04/20 00:18:20;;;;;;;22.10;14.70;;;;;;;4.47;70.26;99663.11;214606;1278;140507;-67
2022/04/20 00:23:23;;;;;;;25.30;16.60;;;;;;;4.55;70.02;99656.36;215430;1279;140630;-68
2022/04/20 00:28:29;;;;;;;23.00;15.70;;;;;;;4.61;69.88;99656.33;214227;1279;141050;-68
2022/04/20 00:33:32;;;;;;;24.60;13.20;;;;;;;4.69;69.72;99653.23;214911;1279;140329;-67
2022/04/20 00:38:35;;;;;;;20.80;13.90;;;;;;;4.72;69.55;99651.21;214099;1278;140174;-67
2022/04/20 00:43:39;;;;;;;18.10;11.00;;;;;;;4.73;69.39;99653.25;213046;1279;141354;-67
2022/04/20 00:48:42;;;;;;;23.20;13.50;;;;;;;4.68;69.33;99655.14;213023;1279;141936;-67
2022/04/20 00:53:45;;;;;;;23.00;15.80;;;;;;;4.66;69.32;99652.00;213686;1279;141490;-67
2022/04/20 00:58:48;;;;;;;22.70;14.50;;;;;;;4.66;69.18;99652.93;213927;1279;143713;-67
2022/04/20 01:03:51;;;;;;;20.80;13.90;;;;;;;4.68;69.30;99651.27;213735;1279;140365;-68
2022/04/20 01:08:54;;;;;;;21.30;13.50;;;;;;;4.70;69.28;99639.66;213570;1279;141248;-64
2022/04/20 01:13:57;;;;;;;18.80;13.40;;;;;;;4.72;69.11;99638.70;213119;1279;142825;-67
2022/04/20 01:19:01;;;;;;;25.20;13.50;;;;;;;4.70;69.42;99637.64;212920;1279;141707;-67
2022/04/20 01:24:04;;;;;;;20.80;14.00;;;;;;;4.68;69.44;99633.45;213877;1279;139820;-67
2022/04/20 01:29:08;;;;;;;20.60;14.50;;;;;;;4.64;69.51;99623.06;213479;1279;140132;-67
2022/04/20 01:34:11;;;;;;;21.80;17.40;;;;;;;4.65;69.66;99617.10;212892;1279;143199;-67
2022/04/20 01:39:14;;;;;;;18.20;11.70;;;;;;;4.66;69.70;99618.05;213883;1279;141178;-67
2022/04/20 01:44:17;;;;;;;22.20;13.20;;;;;;;4.66;69.63;99613.17;213837;1279;141803;-67
2022/04/20 01:49:20;;;;;;;20.20;14.20;;;;;;;4.64;69.92;99598.77;213801;1279;139813;-68
2022/04/20 01:54:23;;;;;;;19.70;13.70;;;;;;;4.63;70.17;99595.52;214549;1279;140945;-68
2022/04/20 01:59:26;;;;;;;13.90;11.70;;;;;;;4.67;70.35;99591.69;214381;1279;142502;-69
2022/04/20 02:04:28;;;;;;;11.40;9.80;;;;;;;4.69;70.81;99580.31;214790;1277;163023;-69
2022/04/20 02:09:31;;;;;;;13.80;9.30;;;;;;;4.75;71.08;99563.39;213163;1279;140102;-69
2022/04/20 02:14:35;;;;;;;9.20;7.90;;;;;;;4.81;71.37;99564.98;214968;1278;140270;-69
2022/04/20 02:19:38;;;;;;;11.90;8.50;;;;;;;4.87;71.69;99569.42;214638;1278;140397;-66
2022/04/20 02:24:42;;;;;;;15.60;11.70;;;;;;;4.90;71.84;99572.78;214768;1279;140404;-67
2022/04/20 02:29:47;;;;;;;25.60;13.80;;;;;;;4.93;72.03;99568.77;213118;1278;222601;-67
2022/04/20 02:34:50;;;;;;;21.30;10.40;;;;;;;4.93;72.22;99557.58;214436;1278;141482;-67
2022/04/20 02:39:54;;;;;;;21.20;10.90;;;;;;;4.91;72.37;99551.00;215519;1279;139943;-67
2022/04/20 02:44:58;;;;;;;17.60;11.40;;;;;;;4.92;72.57;99543.44;213031;1279;140298;-67
2022/04/20 02:50:01;;;;;;;18.10;11.90;;;;;;;4.92;72.55;99541.73;214452;1279;140685;-68
2022/04/20 02:55:07;;;;;;;14.80;11.10;;;;;;;4.90;72.77;99532.56;214244;1279;140551;-70
2022/04/20 03:00:12;;;;;;;18.70;11.20;;;;;;;4.92;73.04;99539.63;213264;1279;211263;-68
2022/04/20 03:05:15;;;;;;;17.70;11.60;;;;;;;4.94;73.09;99543.69;213312;1279;142329;-68
2022/04/20 03:10:18;;;;;;;17.50;12.80;;;;;;;4.97;73.44;99540.92;214088;1279;141037;-69
2022/04/20 03:15:21;;;;;;;16.40;11.90;;;;;;;4.96;73.39;99537.84;213281;1279;142476;-67
2022/04/20 03:20:24;;;;;;;21.00;12.50;;;;;;;4.95;73.52;99532.20;213430;1278;141650;-68
2022/04/20 03:25:28;;;;;;;20.70;15.70;;;;;;;4.95;73.69;99520.09;213197;1279;142370;-63
2022/04/20 03:30:31;;;;;;;17.80;12.90;;;;;;;4.92;73.90;99509.96;213156;1279;141026;-67
2022/04/20 03:35:34;;;;;;;21.20;14.70;;;;;;;4.88;74.17;99516.98;213418;1279;142886;-68
2022/04/20 03:40:38;;;;;;;18.30;13.40;;;;;;;4.86;74.16;99505.64;213896;1278;141180;-70
2022/04/20 03:45:41;;;;;;;18.80;13.70;;;;;;;4.82;74.48;99494.62;212992;1279;144167;-65
2022/04/20 03:50:44;;;;;;;22.60;15.10;;;;;;;4.80;74.70;99490.52;214568;1279;141059;-68
2022/04/20 03:55:47;;;;;;;18.10;14.70;;;;;;;4.81;74.74;99487.47;213594;1278;141074;-67
2022/04/20 04:00:51;;;;;;;16.20;11.40;;;;;;;4.84;74.98;99495.11;214546;1279;140806;-68
2022/04/20 04:05:55;;;;;;;20.80;14.90;;;;;;;4.86;75.07;99499.05;215199;1279;140769;-67
2022/04/20 04:10:58;;;;;;;26.00;15.70;;;;;;;4.85;75.22;99496.50;215561;1279;140568;-69
2022/04/20 04:16:00;;;;;;;38.50;15.30;;;;;;;4.86;75.33;99492.40;214322;1279;142502;-67
2022/04/20 04:21:04;;;;;;;16.50;12.50;;;;;;;4.90;75.66;99490.54;214124;1277;143160;-67
2022/04/20 04:26:06;;;;;;;17.00;14.00;;;;;;;4.92;75.62;99489.52;214071;1278;141572;-68
2022/04/20 04:31:09;;;;;;;21.90;16.10;;;;;;;4.93;75.84;99490.02;214873;1279;142258;-66
2022/04/20 04:36:13;;;;;;;22.60;16.00;;;;;;;4.97;76.06;99489.11;214961;1279;140948;-67
2022/04/20 04:41:15;;;;;;;21.90;16.90;;;;;;;4.99;76.20;99490.41;213940;1279;140845;-66
2022/04/20 04:51:41;;;;;;;19.00;14.50;;;;;;;5.09;76.54;99492.98;213167;1279;142881;-70
2022/04/20 04:56:47;;;;;;;14.50;11.70;;;;;;;5.12;76.62;99490.66;213436;1279;141455;-75
2022/04/20 05:01:50;;;;;;;20.50;13.20;;;;;;;5.13;76.78;99487.04;212761;1279;142394;-62
2022/04/20 05:06:52;;;;;;;17.90;14.50;;;;;;;5.17;77.06;99479.61;213455;1279;142455;-67
2022/04/20 05:11:55;;;;;;;15.90;12.10;;;;;;;5.21;76.96;99474.61;214278;1279;140310;-66
2022/04/20 05:16:59;;;;;;;14.80;9.90;;;;;;;5.23;76.85;99464.44;213730;1279;142520;-67
2022/04/20 05:22:01;;;;;;;12.30;10.20;;;;;;;5.24;76.98;99462.53;213101;1277;140449;-66
2022/04/20 05:27:04;;;;;;;11.10;9.70;;;;;;;5.22;77.22;99459.65;214030;1279;140836;-67
2022/04/20 05:32:08;;;;;;;9.90;8.90;;;;;;;5.22;77.11;99462.21;214145;1279;141007;-66
2022/04/20 05:42:36;;;;;;;7.90;6.50;;;;;;;5.26;77.26;99454.23;214376;1279;141718;-68
2022/04/20 05:47:39;;;;;;;6.50;5.30;;;;;;;5.28;77.52;99452.61;213488;1279;140515;-69
2022/04/20 05:52:42;;;;;;;7.40;5.50;;;;;;;5.34;77.45;99448.37;214017;1279;140521;-68
2022/04/20 05:57:47;;;;;;;5.70;5.20;;;;;;;5.36;77.47;99446.38;214286;1279;140646;-73
2022/04/20 06:02:50;;;;;;;5.00;4.60;;;;;;;5.41;77.48;99442.70;213208;1279;234067;-72
2022/04/20 06:07:52;;;;;;;8.00;5.80;;;;;;;5.43;77.39;99439.28;212914;1279;140317;-65
2022/04/20 06:12:55;;;;;;;6.10;5.50;;;;;;;5.39;77.39;99434.66;213516;1279;144363;-68
2022/04/20 06:17:58;;;;;;;4.60;4.20;;;;;;;5.38;77.31;99436.85;213915;1278;142231;-68
2022/04/20 06:23:02;;;;;;;4.90;3.80;;;;;;;5.31;77.04;99441.05;213627;1277;140939;-69
2022/04/20 06:28:05;;;;;;;6.60;4.30;;;;;;;5.26;77.15;99437.52;215322;1279;141200;-64
2022/04/20 06:33:07;;;;;;;3.60;3.30;;;;;;;5.23;77.06;99440.98;215337;1279;140336;-71
2022/04/20 06:38:09;;;;;;;4.30;3.90;;;;;;;5.26;76.92;99436.75;215559;1278;140429;-76
2022/04/20 06:43:13;;;;;;;2.70;2.50;;;;;;;5.29;77.18;99431.05;213572;1279;141835;-74
2022/04/20 06:48:15;;;;;;;2.80;2.50;;;;;;;5.33;76.80;99426.13;215541;1279;141765;-71
2022/04/20 06:58:42;;;;;;;4.30;3.20;;;;;;;5.31;77.03;99418.45;214523;1279;140671;-70
2022/04/20 07:03:45;;;;;;;5.50;4.10;;;;;;;5.38;77.07;99419.40;214616;1279;140798;-68
2022/04/20 07:08:48;;;;;;;4.50;4.10;;;;;;;5.50;77.31;99416.17;213498;1279;141023;-70
2022/04/20 07:13:51;;;;;;;4.10;3.70;;;;;;;5.59;77.09;99413.29;213918;1279;140754;-70
2022/04/20 07:19:00;;;;;;;4.40;3.40;;;;;;;5.61;77.02;99414.59;213887;1279;141796;-70
2022/04/20 07:24:07;;;;;;;2.70;2.50;;;;;;;5.59;76.97;99414.30;212945;1279;141019;-69
2022/04/20 07:29:11;;;;;;;3.10;2.80;;;;;;;5.51;76.88;99414.71;213390;1279;140928;-69
2022/04/20 07:34:14;;;;;;;2.50;2.40;;;;;;;5.42;76.55;99417.73;212642;1279;141409;-68
2022/04/20 07:39:18;;;;;;;2.40;2.20;;;;;;;5.30;76.57;99414.66;213022;1279;141399;-69
2022/04/20 07:44:21;;;;;;;2.10;1.90;;;;;;;5.24;76.61;99409.55;213633;1279;141181;-69
2022/04/20 07:54:47;;;;;;;3.20;2.30;;;;;;;5.20;76.61;99389.06;213098;1278;141251;-69
2022/04/20 07:59:50;;;;;;;2.30;2.10;;;;;;;5.20;76.95;99386.64;213167;1278;141604;-70
2022/04/20 08:04:56;;;;;;;2.20;2.00;;;;;;;5.23;76.74;99386.84;213639;1278;143367;-70
2022/04/20 08:10:00;;;;;;;2.90;1.90;;;;;;;5.28;76.98;99382.59;213106;1279;142377;-69
2022/04/20 08:15:04;;;;;;;3.70;2.70;;;;;;;5.33;77.09;99374.65;214025;1281;140867;-71
2022/04/20 08:20:09;;;;;;;3.00;2.80;;;;;;;5.41;77.11;99370.19;212926;1279;142636;-68
2022/04/20 08:25:16;;;;;;;2.30;2.10;;;;;;;5.49;76.90;99367.23;214421;1279;141252;-67
2022/04/20 08:30:19;;;;;;;2.80;2.10;;;;;;;5.54;76.51;99361.61;215481;1279;140233;-68
2022/04/20 08:35:23;;;;;;;2.90;2.40;;;;;;;5.60;76.58;99365.98;212992;1280;139887;-68
2022/04/20 08:40:27;;;;;;;1.90;1.80;;;;;;;5.69;76.79;99360.49;214828;1279;140605;-68
2022/04/20 08:45:37;;;;;;;2.20;2.10;;;;;;;5.80;76.34;99360.91;215470;1280;141142;-71
2022/04/20 08:50:42;;;;;;;2.30;2.10;;;;;;;5.95;76.33;99358.52;215070;1279;144069;-75
2022/04/20 08:55:46;;;;;;;2.50;2.40;;;;;;;6.18;76.20;99355.30;213383;1279;140548;-75
2022/04/20 09:00:49;;;;;;;3.20;2.90;;;;;;;6.36;76.17;99352.64;214858;1280;142095;-73
2022/04/20 09:05:51;;;;;;;4.30;3.50;;;;;;;6.53;75.88;99349.77;214249;1279;142017;-66
2022/04/20 09:10:54;;;;;;;3.90;3.50;;;;;;;6.71;76.04;99348.36;214197;1279;140852;-69
2022/04/20 09:16:05;;;;;;;2.00;1.70;;;;;;;6.77;75.79;99349.20;213709;1281;140677;-72
2022/04/20 09:21:15;;;;;;;4.00;2.90;;;;;;;6.78;75.54;99340.83;213912;1279;139652;-70
2022/04/20 09:26:23;;;;;;;2.60;1.90;;;;;;;7.18;75.94;99321.06;213675;1279;140139;-69
2022/04/20 09:31:47;;;;;;;2.60;2.00;;;;;;;7.29;75.36;99322.05;213546;1279;140918;-67
2022/04/20 09:36:50;;;;;;;2.20;2.10;;;;;;;7.27;75.30;99315.62;213404;1280;140264;-68
2022/04/20 09:42:01;;;;;;;1.90;1.80;;;;;;;7.29;75.42;99325.39;212754;1279;141003;-66
2022/04/20 09:52:43;;;;;;;2.50;2.30;;;;;;;7.16;75.12;99324.75;213468;1279;139338;-69
2022/04/20 09:57:47;;;;;;;4.70;2.30;;;;;;;7.12;75.37;99330.55;212661;1281;141941;-68
2022/04/20 10:02:51;;;;;;;2.70;2.50;;;;;;;7.17;75.79;99330.77;213718;1279;140826;-67
2022/04/20 10:07:58;;;;;;;5.10;2.60;;;;;;;7.20;75.49;99333.61;213158;1281;141067;-68
2022/04/20 10:13:03;;;;;;;3.70;2.50;;;;;;;7.21;75.61;99335.51;212852;1279;140284;-66
2022/04/20 10:18:08;;;;;;;2.40;2.00;;;;;;;7.16;75.42;99345.76;214301;1279;140344;-69
2022/04/20 10:23:17;;;;;;;9.80;3.20;;;;;;;7.06;75.45;99343.66;213683;1279;139902;-67
2022/04/20 10:28:42;;;;;;;4.40;3.60;;;;;;;7.06;75.56;99342.07;213510;1278;140401;-68
2022/04/20 10:33:46;;;;;;;3.50;2.90;;;;;;;7.08;75.63;99339.52;213834;1279;231865;-68
2022/04/20 10:39:18;;;;;;;3.50;2.50;;;;;;;7.13;76.44;99340.41;213764;1279;139370;-66
2022/04/20 10:44:21;;;;;;;4.30;3.00;;;;;;;7.17;76.14;99328.16;212881;1278;139681;-66
2022/04/20 10:49:33;;;;;;;3.50;2.90;;;;;;;7.11;75.89;99326.56;213504;1279;1529647;-68
2022/04/20 10:54:51;;;;;;;6.60;2.90;;;;;;;7.15;75.99;99332.73;214873;1279;140954;-71
2022/04/20 11:00:25;;;;;;;3.60;2.40;;;;;;;7.18;75.84;99336.20;214118;1278;140220;-68
2022/04/20 11:05:27;;;;;;;4.40;2.90;;;;;;;7.11;75.50;99333.05;214815;1279;140468;-68
2022/04/20 11:10:30;;;;;;;4.70;2.90;;;;;;;7.17;76.02;99338.98;213556;1279;140578;-69
2022/04/20 11:21:06;;;;;;;3.90;3.50;;;;;;;7.19;75.92;99330.68;214244;1278;140742;-70
2022/04/20 11:26:12;;;;;;;4.30;3.90;;;;;;;7.14;75.99;99328.45;214607;1279;140518;-68
2022/04/20 11:31:16;;;;;;;5.10;3.90;;;;;;;7.11;76.19;99331.14;213936;1278;139754;-69
2022/04/20 11:36:20;;;;;;;5.30;3.60;;;;;;;7.15;76.16;99343.33;213954;1279;140241;-69
2022/04/20 11:41:23;;;;;;;3.20;3.00;;;;;;;7.17;76.05;99346.66;213807;1279;142478;-68
2022/04/20 11:46:26;;;;;;;4.10;2.70;;;;;;;7.23;76.20;99339.00;214275;1279;141435;-73
2022/04/20 11:51:31;;;;;;;7.10;3.20;;;;;;;7.25;76.10;99336.94;213800;1279;142097;-71
2022/04/20 11:56:35;;;;;;;3.50;2.30;;;;;;;7.22;75.89;99341.66;213080;1277;141041;-71
2022/04/20 12:01:41;;;;;;;3.30;3.00;;;;;;;7.20;76.24;99344.13;213402;1279;141687;-72
2022/04/20 12:06:46;;;;;;;3.50;3.20;;;;;;;7.21;76.45;99340.48;213446;1279;142299;-72
2022/04/20 12:11:54;;;;;;;3.60;3.00;;;;;;;7.23;76.13;99332.68;213161;1279;142258;-69
2022/04/20 12:16:59;;;;;;;3.90;3.60;;;;;;;7.27;76.34;99330.10;213140;1279;141340;-68
2022/04/20 12:22:10;;;;;;;4.10;3.10;;;;;;;7.30;76.29;99334.75;213710;1277;141273;-66
2022/04/20 12:27:18;;;;;;;3.20;3.00;;;;;;;7.29;76.45;99335.50;213099;1277;141240;-67
2022/04/20 12:32:47;;;;;;;4.40;2.90;;;;;;;7.27;76.15;99336.21;212829;1279;140762;-67
2022/04/20 12:37:54;;;;;;;3.20;2.90;;;;;;;7.26;76.52;99335.70;213340;1279;140484;-68
2022/04/20 12:43:05;;;;;;;4.50;3.20;;;;;;;7.23;76.02;99332.55;212848;1279;142055;-69
2022/04/20 12:48:12;;;;;;;4.10;3.70;;;;;;;7.18;76.35;99335.05;213464;1279;139672;-69
2022/04/20 12:53:16;;;;;;;4.40;4.00;;;;;;;7.18;76.70;99337.38;214615;1279;140209;-69
2022/04/20 13:03:42;;;;;;;5.50;5.00;;;;;;;7.21;76.69;99340.08;215556;1279;141111;-69
2022/04/20 13:08:46;;;;;;;6.90;6.10;;;;;;;7.27;76.70;99344.65;214291;1279;141532;-69
2022/04/20 13:13:50;;;;;;;8.70;7.70;;;;;;;7.36;76.63;99344.70;214882;1278;141138;-69
2022/04/20 13:18:53;;;;;;;9.50;7.10;;;;;;;7.36;76.57;99348.89;214562;1279;139891;-70
2022/04/20 13:23:58;;;;;;;9.90;8.90;;;;;;;7.32;76.34;99353.48;215194;1279;139796;-69
2022/04/20 13:29:01;;;;;;;9.30;8.50;;;;;;;7.30;76.75;99343.36;214329;1279;139718;-71
2022/04/20 13:34:05;;;;;;;13.20;8.60;;;;;;;7.35;76.64;99342.02;213482;1278;140872;-67
2022/04/20 13:39:10;;;;;;;11.10;10.10;;;;;;;7.33;76.92;99337.08;213753;1279;140083;-72
2022/04/20 13:44:15;;;;;;;15.50;10.00;;;;;;;7.35;76.88;99341.39;214469;1279;140842;-70
2022/04/20 13:49:17;;;;;;;9.80;8.80;;;;;;;7.38;77.16;99347.27;213644;1277;140905;-71
2022/04/20 13:54:21;;;;;;;9.80;8.10;;;;;;;7.41;77.33;99348.14;213599;1277;141528;-67
2022/04/20 13:59:25;;;;;;;12.30;9.00;;;;;;;7.35;77.06;99346.59;213515;1279;151686;-69
2022/04/20 14:04:28;;;;;;;10.20;8.50;;;;;;;7.31;76.99;99346.66;213703;1277;142667;-69
2022/04/20 14:09:30;;;;;;;9.50;8.50;;;;;;;7.26;77.16;99346.80;213091;1279;142311;-72
2022/04/20 14:14:33;;;;;;;10.60;9.40;;;;;;;7.23;77.50;99349.44;213463;1279;140864;-73
2022/04/20 14:19:40;;;;;;;9.50;8.60;;;;;;;7.28;77.29;99354.69;212602;1279;143284;-66
2022/04/20 14:24:45;;;;;;;9.50;8.60;;;;;;;7.31;77.68;99357.55;213372;1279;140497;-73
2022/04/20 14:35:15;;;;;;;15.60;12.80;;;;;;;7.27;77.72;99365.21;213974;1278;140766;-75
2022/04/20 14:40:19;;;;;;;23.30;20.90;;;;;;;7.34;77.55;99366.39;213114;1279;140105;-72
2022/04/20 14:45:23;;;;;;;13.00;11.40;;;;;;;7.41;77.76;99368.45;212798;1279;140591;-65
2022/04/20 14:50:27;;;;;;;12.70;11.50;;;;;;;7.49;78.18;99374.61;213297;1278;140838;-74
2022/04/20 14:55:30;;;;;;;13.10;10.80;;;;;;;7.52;77.69;99374.90;213234;1279;142880;-71
2022/04/20 15:00:41;;;;;;;11.50;9.90;;;;;;;7.49;77.72;99380.13;213191;1278;140492;-73
2022/04/20 15:05:46;;;;;;;12.70;10.50;;;;;;;7.54;77.81;99382.23;214716;1277;140292;-68
2022/04/20 15:10:50;;;;;;;9.90;8.00;;;;;;;7.60;77.41;99390.69;213387;1279;141482;-70
2022/04/20 15:15:52;;;;;;;12.30;8.70;;;;;;;7.59;78.03;99394.85;213731;1277;141038;-70
2022/04/20 15:20:55;;;;;;;15.70;13.40;;;;;;;7.59;77.99;99396.48;214807;1278;139620;-70
2022/04/20 15:26:21;;;;;;;12.40;10.60;;;;;;;7.71;77.87;99397.70;213176;1279;140550;-72
2022/04/20 15:31:24;;;;;;;10.80;9.20;;;;;;;7.78;77.99;99402.30;214168;1279;236055;-68
2022/04/20 15:36:30;;;;;;;12.20;10.80;;;;;;;7.90;78.04;99406.03;212742;1278;140803;-67
2022/04/20 15:41:33;;;;;;;11.90;10.30;;;;;;;7.93;77.96;99406.33;212580;1279;141252;-69
2022/04/20 15:46:36;;;;;;;12.50;11.20;;;;;;;7.97;77.82;99393.84;212901;1277;141668;-65
2022/04/20 15:51:39;;;;;;;12.10;10.10;;;;;;;8.01;78.00;99389.36;212810;1277;142829;-67
2022/04/20 16:02:03;;;;;;;17.10;11.80;;;;;;;7.94;77.92;99388.57;213856;1279;140325;-68
2022/04/20 16:07:08;;;;;;;14.20;12.80;;;;;;;7.92;77.58;99387.72;212557;1277;141567;-66
2022/04/20 16:12:12;;;;;;;18.00;13.50;;;;;;;7.92;77.58;99393.56;213058;1279;140331;-68
2022/04/20 16:17:18;;;;;;;15.70;13.80;;;;;;;7.84;77.67;99403.84;212859;1279;141937;-68
2022/04/20 16:22:21;;;;;;;14.90;13.10;;;;;;;7.83;78.05;99411.39;212849;1278;142631;-68
2022/04/20 16:27:26;;;;;;;12.70;11.40;;;;;;;7.83;77.91;99413.48;213021;1278;142926;-66
2022/04/20 16:32:28;;;;;;;13.70;12.20;;;;;;;7.76;78.09;99407.30;212373;1279;143658;-68
2022/04/20 16:37:31;;;;;;;15.60;12.30;;;;;;;7.83;78.19;99410.17;213076;1279;142347;-73
2022/04/20 16:42:39;;;;;;;16.60;12.70;;;;;;;7.86;78.60;99411.27;213351;1278;140640;-68
2022/04/20 16:47:44;;;;;;;26.10;19.20;;;;;;;7.86;78.05;99411.52;213853;1279;142231;-68
2022/04/20 16:52:47;;;;;;;14.50;13.00;;;;;;;7.85;78.28;99414.33;214501;1278;141470;-72
2022/04/20 16:57:50;;;;;;;15.00;13.50;;;;;;;7.86;78.23;99415.52;214360;1278;141755;-66
2022/04/20 17:02:54;;;;;;;17.40;15.60;;;;;;;7.85;78.12;99415.45;214730;1279;140935;-69
2022/04/20 17:07:57;;;;;;;15.50;13.70;;;;;;;7.87;78.05;99413.42;215355;1278;144118;-71
2022/04/20 17:13:00;;;;;;;17.50;14.10;;;;;;;7.90;78.34;99416.81;214288;1279;163311;-68
2022/04/20 17:18:04;;;;;;;15.30;13.80;;;;;;;7.82;77.98;99420.95;215280;1277;141645;-68
2022/04/20 17:28:36;;;;;;;15.30;13.70;;;;;;;7.62;78.05;99430.76;214470;1279;141168;-69
2022/04/20 17:33:41;;;;;;;16.80;14.10;;;;;;;7.64;78.26;99435.25;214935;1279;141289;-70
2022/04/20 17:38:46;;;;;;;16.60;14.80;;;;;;;7.66;78.54;99427.96;214185;1279;140798;-70
2022/04/20 17:43:50;;;;;;;20.60;15.10;;;;;;;7.67;78.36;99430.73;214473;1279;141120;-70
2022/04/20 17:48:52;;;;;;;15.40;13.80;;;;;;;7.62;78.38;99432.48;213199;1278;140191;-69
2022/04/20 17:53:55;;;;;;;16.30;14.60;;;;;;;7.57;78.32;99430.38;214359;1279;140918;-70
2022/04/20 17:58:57;;;;;;;16.90;15.10;;;;;;;7.55;78.68;99430.31;213100;1279;140937;-69
2022/04/20 18:04:00;;;;;;;18.20;15.70;;;;;;;7.59;78.65;99428.27;213167;1277;143058;-69
2022/04/20 18:09:02;;;;;;;14.90;13.40;;;;;;;7.62;78.72;99433.41;213476;1278;140395;-69
2022/04/20 18:14:05;;;;;;;16.70;14.90;;;;;;;7.63;78.84;99430.30;213111;1279;141171;-70
2022/04/20 18:19:08;;;;;;;19.60;17.50;;;;;;;7.61;78.77;99423.19;212856;1279;142988;-69
2022/04/20 18:24:10;;;;;;;17.30;15.50;;;;;;;7.58;78.71;99423.20;213643;1279;141397;-65
2022/04/20 18:29:14;;;;;;;17.70;15.80;;;;;;;7.51;78.46;99426.19;213506;1277;141428;-70
2022/04/20 18:34:17;;;;;;;21.40;18.70;;;;;;;7.50;79.06;99423.39;212914;1277;141877;-70
2022/04/20 18:39:19;;;;;;;20.60;17.20;;;;;;;7.47;78.77;99417.52;213626;1278;140997;-71
2022/04/20 18:44:23;;;;;;;19.00;17.00;;;;;;;7.46;78.97;99418.66;213987;1279;141142;-66
2022/04/20 18:49:27;;;;;;;20.40;17.60;;;;;;;7.44;78.77;99429.27;213641;1277;141282;-69
2022/04/20 18:59:53;;;;;;;26.10;20.10;;;;;;;7.33;78.90;99441.98;215156;1279;142285;-69
2022/04/20 19:04:57;;;;;;;20.10;17.90;;;;;;;7.32;79.08;99439.52;214546;1278;141295;-69
2022/04/20 19:09:59;;;;;;;20.40;18.20;;;;;;;7.29;78.58;99443.14;215247;1279;142270;-70
2022/04/20 19:15:04;;;;;;;24.00;19.00;;;;;;;7.22;78.66;99447.08;215306;1278;142082;-69
2022/04/20 19:20:13;;;;;;;24.00;20.80;;;;;;;7.18;78.81;99445.16;215577;1277;141952;-71
2022/04/20 19:25:16;;;;;;;25.60;22.60;;;;;;;7.25;79.21;99444.20;212782;1279;142250;-65
2022/04/20 19:30:20;;;;;;;26.40;21.20;;;;;;;7.29;79.06;99438.17;214822;1279;141704;-70
2022/04/20 19:35:23;;;;;;;25.60;21.00;;;;;;;7.32;79.25;99430.09;213888;1278;143163;-70
2022/04/20 19:40:31;;;;;;;24.80;21.20;;;;;;;7.27;79.25;99429.86;213290;1279;142114;-68
2022/04/20 19:45:37;;;;;;;30.90;23.30;;;;;;;7.19;78.91;99426.56;213054;1279;144248;-67
2022/04/20 19:50:40;;;;;;;26.20;21.40;;;;;;;7.15;79.44;99431.58;213624;1278;143426;-68
2022/04/20 19:55:43;;;;;;;27.10;23.50;;;;;;;7.14;79.14;99440.27;212812;1279;141630;-68
2022/04/20 20:00:59;;;;;;;28.20;23.40;;;;;;;7.10;79.43;99440.30;213803;1278;142004;-68
2022/04/20 20:06:17;;;;;;;31.30;23.40;;;;;;;7.13;79.42;99436.04;213702;1279;142348;-68
2022/04/20 20:11:23;;;;;;;28.80;23.60;;;;;;;7.15;79.45;99439.08;212986;1279;142590;-69
2022/04/20 20:16:28;;;;;;;37.10;24.40;;;;;;;7.18;80.04;99437.51;213208;1279;141567;-65
2022/04/20 20:21:32;;;;;;;31.80;23.60;;;;;;;7.18;79.65;99438.64;213217;1279;141615;-68
2022/04/20 20:31:58;;;;;;;39.20;28.30;;;;;;;7.25;79.95;99455.13;213072;1279;143818;-68
2022/04/20 20:37:00;;;;;;;40.90;29.40;;;;;;;7.26;80.15;99454.89;213808;1278;142802;-68
2022/04/20 20:42:07;;;;;;;36.90;27.90;;;;;;;7.24;79.85;99453.66;213797;1279;142010;-68
2022/04/20 20:47:12;;;;;;;35.70;26.70;;;;;;;7.13;79.86;99458.30;212566;1279;141825;-68
2022/04/20 20:52:16;;;;;;;36.60;25.20;;;;;;;7.11;79.92;99458.72;213752;1279;141764;-69
2022/04/20 20:57:21;;;;;;;30.60;22.50;;;;;;;7.10;80.21;99458.73;213117;1279;142137;-69
2022/04/20 21:02:24;;;;;;;35.40;26.40;;;;;;;6.98;79.54;99464.41;213595;1278;141388;-69
2022/04/20 21:07:28;;;;;;;30.50;25.50;;;;;;;6.90;80.29;99466.80;213751;1279;141512;-69
2022/04/20 21:12:32;;;;;;;30.30;25.40;;;;;;;6.92;80.18;99465.19;214160;1278;143111;-69
2022/04/20 21:17:38;;;;;;;33.40;24.40;;;;;;;6.96;80.53;99458.92;214067;1279;141822;-66
2022/04/20 21:22:43;;;;;;;32.30;26.70;;;;;;;7.03;80.41;99457.22;215021;1277;141083;-68
2022/04/20 21:27:47;;;;;;;35.10;25.10;;;;;;;7.06;80.95;99455.98;214567;1279;142566;-69
2022/04/20 21:32:52;;;;;;;38.90;26.10;;;;;;;7.13;80.39;99459.85;212958;1279;141989;-69
2022/04/20 21:37:56;;;;;;;33.90;25.90;;;;;;;7.14;80.63;99453.40;212852;1279;143306;-67
2022/04/20 21:43:00;;;;;;;35.80;27.40;;;;;;;7.09;80.45;99455.69;213889;1278;141771;-68
2022/04/20 21:48:07;;;;;;;37.50;27.50;;;;;;;7.05;80.34;99452.58;213271;1279;141651;-68
2022/04/20 21:53:10;;;;;;;36.20;27.70;;;;;;;7.06;80.75;99449.92;213042;1279;140780;-68
2022/04/20 21:58:14;;;;;;;43.00;30.70;;;;;;;7.09;80.78;99456.17;213813;1278;141855;-69
2022/04/20 22:08:55;;;;;;;42.70;30.40;;;;;;;7.02;80.69;99449.36;213022;1279;141064;-69
2022/04/20 22:13:57;;;;;;;47.70;33.10;;;;;;;6.99;81.13;99455.39;212963;1279;141533;-69
2022/04/20 22:19:01;;;;;;;52.40;34.30;;;;;;;6.97;81.01;99452.64;213048;1279;142257;-68
2022/04/20 22:24:04;;;;;;;43.40;29.90;;;;;;;7.03;81.16;99448.94;213063;1279;141571;-67
2022/04/20 22:29:06;;;;;;;49.00;35.40;;;;;;;7.02;81.43;99449.20;213209;1279;141121;-67
2022/04/20 22:34:09;;;;;;;47.60;32.80;;;;;;;7.02;81.55;99452.16;213613;1279;142521;-68
2022/04/20 22:39:14;;;;;;;47.30;33.50;;;;;;;7.05;81.68;99450.79;213632;1279;141339;-68
2022/04/20 22:44:24;;;;;;;48.40;33.10;;;;;;;7.08;81.43;99445.01;212956;1279;142618;-66
2022/04/20 22:49:30;;;;;;;47.90;32.70;;;;;;;7.05;81.37;99441.54;212610;1279;850597;-68
2022/04/20 22:54:34;;;;;;;51.40;34.80;;;;;;;7.03;81.57;99441.06;213219;1279;141954;-68
2022/04/20 22:59:38;;;;;;;47.00;33.70;;;;;;;7.05;81.52;99437.86;214488;1279;143783;-68
2022/04/20 23:04:41;;;;;;;44.40;32.80;;;;;;;7.02;81.61;99443.95;212795;1279;142499;-67
2022/04/20 23:09:44;;;;;;;44.60;31.70;;;;;;;7.02;81.67;99447.02;213662;1282;141660;-68
2022/04/20 23:14:49;;;;;;;47.30;31.90;;;;;;;7.05;81.63;99445.52;212884;1279;142192;-69
2022/04/20 23:19:52;;;;;;;49.00;35.10;;;;;;;7.09;81.51;99443.61;214192;1281;142310;-69
2022/04/20 23:30:16;;;;;;;60.20;33.60;;;;;;;7.14;81.29;99446.30;215112;1279;141746;-69
2022/04/20 23:35:19;;;;;;;50.60;33.30;;;;;;;7.19;81.77;99444.58;214170;1279;140940;-70
2022/04/20 23:40:21;;;;;;;55.20;35.00;;;;;;;7.22;81.93;99446.27;214553;1279;140352;-69
2022/04/20 23:45:23;;;;;;;52.70;35.00;;;;;;;7.21;81.06;99441.59;213470;1279;140299;-69
2022/04/20 23:50:26;;;;;;;55.80;34.40;;;;;;;7.16;81.32;99441.60;213773;1278;140806;-68
2022/04/20 23:55:29;;;;;;;55.90;35.30;;;;;;;7.14;81.48;99437.94;213611;1279;140445;-68
